sensor_id;sensor_type;location;lat;lon;timestamp;P1;durP1;ratioP1;P2;durP2;ratioP2
7719;SDS011;3902;49.474;8.616;2023-04-25T00:01:33;2.17;;;2.00;;
7719;SDS011;3902;49.474;8.616;2023-04-25T00:04:01;2.10;;;2.00;;
7719;SDS011;3902;49.474;8.616;2023-04-25T00:06:27;2.10;;;1.90;;
7719;SDS011;3902;49.474;8.616;2023-04-25T00:08:55;2.50;;;2.30;;
7719;SDS011;3902;49.474;8.616;2023-04-25T00:11:21;2.23;;;2.03;;
7719;SDS011;3902;49.474;8.616;2023-04-25T00:13:47;2.53;;;2.30;;
7719;SDS011;3902;49.474;8.616;2023-04-25T00:16:14;2.27;;;2.07;;
7719;SDS011;3902;49.474;8.616;2023-04-25T00:18:41;2.03;;;1.93;;
7719;SDS011;3902;49.474;8.616;2023-04-25T00:21:07;2.30;;;2.03;;
7719;SDS011;3902;49.474;8.616;2023-04-25T00:23:33;2.50;;;2.30;;
7719;SDS011;3902;49.474;8.616;2023-04-25T00:26:01;2.03;;;1.93;;
7719;SDS011;3902;49.474;8.616;2023-04-25T00:28:27;2.53;;;2.20;;
7719;SDS011;3902;49.474;8.616;2023-04-25T00:30:52;2.53;;;2.27;;
7719;SDS011;3902;49.474;8.616;2023-04-25T00:33:18;2.20;;;2.10;;
7719;SDS011;3902;49.474;8.616;2023-04-25T00:35:43;2.60;;;2.40;;
7719;SDS011;3902;49.474;8.616;2023-04-25T00:38:09;2.50;;;2.30;;
7719;SDS011;3902;49.474;8.616;2023-04-25T00:40:34;3.47;;;2.40;;
7719;SDS011;3902;49.474;8.616;2023-04-25T00:43:00;2.93;;;2.63;;
7719;SDS011;3902;49.474;8.616;2023-04-25T00:45:28;2.70;;;2.50;;
7719;SDS011;3902;49.474;8.616;2023-04-25T00:47:54;2.63;;;2.43;;
7719;SDS011;3902;49.474;8.616;2023-04-25T00:50:21;2.60;;;2.40;;
7719;SDS011;3902;49.474;8.616;2023-04-25T00:52:47;2.70;;;2.50;;
7719;SDS011;3902;49.474;8.616;2023-04-25T00:55:12;2.20;;;2.10;;
7719;SDS011;3902;49.474;8.616;2023-04-25T00:57:38;2.47;;;2.27;;
7719;SDS011;3902;49.474;8.616;2023-04-25T01:00:05;2.80;;;2.60;;
7719;SDS011;3902;49.474;8.616;2023-04-25T01:02:32;2.67;;;2.47;;
7719;SDS011;3902;49.474;8.616;2023-04-25T01:04:58;2.53;;;2.33;;
7719;SDS011;3902;49.474;8.616;2023-04-25T01:07:23;2.80;;;2.60;;
7719;SDS011;3902;49.474;8.616;2023-04-25T01:09:51;2.50;;;2.30;;
7719;SDS011;3902;49.474;8.616;2023-04-25T01:12:16;2.60;;;2.40;;
7719;SDS011;3902;49.474;8.616;2023-04-25T01:14:42;2.80;;;2.60;;
7719;SDS011;3902;49.474;8.616;2023-04-25T01:17:08;2.90;;;2.70;;
7719;SDS011;3902;49.474;8.616;2023-04-25T01:19:34;2.87;;;2.67;;
7719;SDS011;3902;49.474;8.616;2023-04-25T01:22:00;2.97;;;2.77;;
7719;SDS011;3902;49.474;8.616;2023-04-25T01:24:26;3.00;;;2.70;;
7719;SDS011;3902;49.474;8.616;2023-04-25T01:26:51;3.73;;;3.43;;
7719;SDS011;3902;49.474;8.616;2023-04-25T01:29:19;2.83;;;2.63;;
7719;SDS011;3902;49.474;8.616;2023-04-25T01:31:45;5.13;;;3.00;;
7719;SDS011;3902;49.474;8.616;2023-04-25T01:34:11;2.80;;;2.60;;
7719;SDS011;3902;49.474;8.616;2023-04-25T01:36:37;2.97;;;2.77;;
7719;SDS011;3902;49.474;8.616;2023-04-25T01:39:03;3.03;;;2.70;;
7719;SDS011;3902;49.474;8.616;2023-04-25T01:41:28;3.33;;;3.00;;
7719;SDS011;3902;49.474;8.616;2023-04-25T01:43:54;3.47;;;3.17;;
7719;SDS011;3902;49.474;8.616;2023-04-25T01:46:20;3.20;;;3.00;;
7719;SDS011;3902;49.474;8.616;2023-04-25T01:48:46;2.93;;;2.70;;
7719;SDS011;3902;49.474;8.616;2023-04-25T01:51:12;3.50;;;3.20;;
7719;SDS011;3902;49.474;8.616;2023-04-25T01:53:38;3.40;;;3.10;;
7719;SDS011;3902;49.474;8.616;2023-04-25T01:56:04;3.63;;;3.33;;
7719;SDS011;3902;49.474;8.616;2023-04-25T01:58:30;3.33;;;3.03;;
7719;SDS011;3902;49.474;8.616;2023-04-25T02:00:56;3.87;;;3.40;;
7719;SDS011;3902;49.474;8.616;2023-04-25T02:03:21;3.93;;;3.63;;
7719;SDS011;3902;49.474;8.616;2023-04-25T02:05:47;4.27;;;3.90;;
7719;SDS011;3902;49.474;8.616;2023-04-25T02:08:13;4.07;;;3.67;;
7719;SDS011;3902;49.474;8.616;2023-04-25T02:10:38;3.87;;;3.50;;
7719;SDS011;3902;49.474;8.616;2023-04-25T02:13:04;4.37;;;4.00;;
7719;SDS011;3902;49.474;8.616;2023-04-25T02:15:30;3.70;;;3.40;;
7719;SDS011;3902;49.474;8.616;2023-04-25T02:17:56;4.73;;;4.27;;
7719;SDS011;3902;49.474;8.616;2023-04-25T02:20:22;3.90;;;3.60;;
7719;SDS011;3902;49.474;8.616;2023-04-25T02:22:48;3.80;;;3.50;;
7719;SDS011;3902;49.474;8.616;2023-04-25T02:25:14;5.30;;;4.17;;
7719;SDS011;3902;49.474;8.616;2023-04-25T02:27:41;4.03;;;3.63;;
7719;SDS011;3902;49.474;8.616;2023-04-25T02:30:07;4.40;;;4.00;;
7719;SDS011;3902;49.474;8.616;2023-04-25T02:32:33;4.43;;;4.00;;
7719;SDS011;3902;49.474;8.616;2023-04-25T02:34:59;4.87;;;4.47;;
7719;SDS011;3902;49.474;8.616;2023-04-25T02:37:29;4.87;;;4.47;;
7719;SDS011;3902;49.474;8.616;2023-04-25T02:39:58;7.10;;;5.37;;
7719;SDS011;3902;49.474;8.616;2023-04-25T02:42:24;4.77;;;4.37;;
7719;SDS011;3902;49.474;8.616;2023-04-25T02:44:49;5.30;;;4.70;;
7719;SDS011;3902;49.474;8.616;2023-04-25T02:47:15;4.47;;;4.07;;
7719;SDS011;3902;49.474;8.616;2023-04-25T02:49:40;5.83;;;5.33;;
7719;SDS011;3902;49.474;8.616;2023-04-25T02:52:06;4.10;;;3.80;;
7719;SDS011;3902;49.474;8.616;2023-04-25T02:54:31;4.60;;;4.20;;
7719;SDS011;3902;49.474;8.616;2023-04-25T02:56:57;5.80;;;5.30;;
7719;SDS011;3902;49.474;8.616;2023-04-25T02:59:22;5.70;;;5.00;;
7719;SDS011;3902;49.474;8.616;2023-04-25T03:01:48;5.00;;;4.60;;
7719;SDS011;3902;49.474;8.616;2023-04-25T03:04:14;4.70;;;4.30;;
7719;SDS011;3902;49.474;8.616;2023-04-25T03:06:44;4.90;;;4.50;;
7719;SDS011;3902;49.474;8.616;2023-04-25T03:09:09;4.40;;;4.03;;
7719;SDS011;3902;49.474;8.616;2023-04-25T03:11:36;4.03;;;3.73;;
7719;SDS011;3902;49.474;8.616;2023-04-25T03:14:03;4.47;;;4.07;;
7719;SDS011;3902;49.474;8.616;2023-04-25T03:16:29;5.10;;;4.10;;
7719;SDS011;3902;49.474;8.616;2023-04-25T03:18:55;4.10;;;3.80;;
7719;SDS011;3902;49.474;8.616;2023-04-25T03:21:21;5.50;;;4.50;;
7719;SDS011;3902;49.474;8.616;2023-04-25T03:23:47;5.10;;;4.70;;
7719;SDS011;3902;49.474;8.616;2023-04-25T03:26:12;4.83;;;4.40;;
7719;SDS011;3902;49.474;8.616;2023-04-25T03:28:38;5.10;;;4.70;;
7719;SDS011;3902;49.474;8.616;2023-04-25T03:31:05;5.43;;;4.80;;
7719;SDS011;3902;49.474;8.616;2023-04-25T03:33:30;4.97;;;4.57;;
7719;SDS011;3902;49.474;8.616;2023-04-25T03:35:56;5.80;;;5.17;;
7719;SDS011;3902;49.474;8.616;2023-04-25T03:38:21;4.87;;;4.47;;
7719;SDS011;3902;49.474;8.616;2023-04-25T03:40:47;5.50;;;5.00;;
7719;SDS011;3902;49.474;8.616;2023-04-25T03:43:12;5.83;;;5.33;;
7719;SDS011;3902;49.474;8.616;2023-04-25T03:45:38;7.90;;;5.20;;
7719;SDS011;3902;49.474;8.616;2023-04-25T03:48:03;5.40;;;5.00;;
7719;SDS011;3902;49.474;8.616;2023-04-25T03:50:29;5.90;;;5.40;;
7719;SDS011;3902;49.474;8.616;2023-04-25T03:52:54;5.67;;;5.17;;
7719;SDS011;3902;49.474;8.616;2023-04-25T03:55:20;6.13;;;5.63;;
7719;SDS011;3902;49.474;8.616;2023-04-25T03:57:45;6.00;;;5.50;;
7719;SDS011;3902;49.474;8.616;2023-04-25T04:00:11;6.00;;;5.50;;
7719;SDS011;3902;49.474;8.616;2023-04-25T04:02:37;6.53;;;5.57;;
7719;SDS011;3902;49.474;8.616;2023-04-25T04:05:04;6.03;;;5.53;;
7719;SDS011;3902;49.474;8.616;2023-04-25T04:07:30;6.27;;;5.77;;
7719;SDS011;3902;49.474;8.616;2023-04-25T04:09:57;5.97;;;5.47;;
7719;SDS011;3902;49.474;8.616;2023-04-25T04:12:23;6.20;;;5.70;;
7719;SDS011;3902;49.474;8.616;2023-04-25T04:14:49;7.30;;;6.63;;
7719;SDS011;3902;49.474;8.616;2023-04-25T04:17:14;6.57;;;5.97;;
7719;SDS011;3902;49.474;8.616;2023-04-25T04:19:40;5.97;;;5.47;;
7719;SDS011;3902;49.474;8.616;2023-04-25T04:22:06;6.80;;;6.10;;
7719;SDS011;3902;49.474;8.616;2023-04-25T04:24:31;7.40;;;6.70;;
7719;SDS011;3902;49.474;8.616;2023-04-25T04:26:57;7.00;;;6.40;;
7719;SDS011;3902;49.474;8.616;2023-04-25T04:29:23;6.20;;;5.63;;
7719;SDS011;3902;49.474;8.616;2023-04-25T04:31:49;6.37;;;5.77;;
7719;SDS011;3902;49.474;8.616;2023-04-25T04:34:16;7.37;;;6.70;;
7719;SDS011;3902;49.474;8.616;2023-04-25T04:36:43;6.70;;;6.10;;
7719;SDS011;3902;49.474;8.616;2023-04-25T04:39:11;6.87;;;6.27;;
7719;SDS011;3902;49.474;8.616;2023-04-25T04:41:37;8.03;;;6.77;;
7719;SDS011;3902;49.474;8.616;2023-04-25T04:44:03;7.97;;;6.90;;
7719;SDS011;3902;49.474;8.616;2023-04-25T04:46:29;6.80;;;6.20;;
7719;SDS011;3902;49.474;8.616;2023-04-25T04:48:56;7.20;;;6.60;;
7719;SDS011;3902;49.474;8.616;2023-04-25T04:51:22;6.73;;;6.13;;
7719;SDS011;3902;49.474;8.616;2023-04-25T04:53:47;7.07;;;6.40;;
7719;SDS011;3902;49.474;8.616;2023-04-25T04:56:13;6.93;;;6.33;;
7719;SDS011;3902;49.474;8.616;2023-04-25T04:58:38;7.17;;;6.57;;
7719;SDS011;3902;49.474;8.616;2023-04-25T05:01:04;6.47;;;5.87;;
7719;SDS011;3902;49.474;8.616;2023-04-25T05:03:30;6.70;;;6.10;;
7719;SDS011;3902;49.474;8.616;2023-04-25T05:05:56;7.37;;;6.77;;
7719;SDS011;3902;49.474;8.616;2023-04-25T05:08:21;7.00;;;6.33;;
7719;SDS011;3902;49.474;8.616;2023-04-25T05:10:47;6.90;;;6.30;;
7719;SDS011;3902;49.474;8.616;2023-04-25T05:13:13;7.23;;;5.97;;
7719;SDS011;3902;49.474;8.616;2023-04-25T05:15:38;6.97;;;6.33;;
7719;SDS011;3902;49.474;8.616;2023-04-25T05:18:03;6.90;;;6.20;;
7719;SDS011;3902;49.474;8.616;2023-04-25T05:20:29;6.77;;;6.17;;
7719;SDS011;3902;49.474;8.616;2023-04-25T05:22:54;6.73;;;6.23;;
7719;SDS011;3902;49.474;8.616;2023-04-25T05:25:20;7.40;;;6.70;;
7719;SDS011;3902;49.474;8.616;2023-04-25T05:27:45;5.70;;;5.20;;
7719;SDS011;3902;49.474;8.616;2023-04-25T05:30:11;6.50;;;5.87;;
7719;SDS011;3902;49.474;8.616;2023-04-25T05:32:37;6.20;;;5.63;;
7719;SDS011;3902;49.474;8.616;2023-04-25T05:35:02;6.97;;;6.27;;
7719;SDS011;3902;49.474;8.616;2023-04-25T05:37:28;7.13;;;6.53;;
7719;SDS011;3902;49.474;8.616;2023-04-25T05:39:55;6.07;;;5.57;;
7719;SDS011;3902;49.474;8.616;2023-04-25T05:42:21;7.60;;;6.90;;
7719;SDS011;3902;49.474;8.616;2023-04-25T05:44:47;7.07;;;6.40;;
7719;SDS011;3902;49.474;8.616;2023-04-25T05:47:12;6.30;;;5.70;;
7719;SDS011;3902;49.474;8.616;2023-04-25T05:49:38;6.70;;;6.10;;
7719;SDS011;3902;49.474;8.616;2023-04-25T05:52:04;7.07;;;6.37;;
7719;SDS011;3902;49.474;8.616;2023-04-25T05:54:29;6.33;;;5.83;;
7719;SDS011;3902;49.474;8.616;2023-04-25T05:56:58;8.23;;;7.53;;
7719;SDS011;3902;49.474;8.616;2023-04-25T05:59:24;6.83;;;6.20;;
7719;SDS011;3902;49.474;8.616;2023-04-25T06:01:49;6.87;;;6.27;;
7719;SDS011;3902;49.474;8.616;2023-04-25T06:04:15;7.03;;;6.43;;
7719;SDS011;3902;49.474;8.616;2023-04-25T06:06:40;7.23;;;6.53;;
7719;SDS011;3902;49.474;8.616;2023-04-25T06:09:06;7.60;;;6.80;;
7719;SDS011;3902;49.474;8.616;2023-04-25T06:11:31;7.03;;;6.33;;
7719;SDS011;3902;49.474;8.616;2023-04-25T06:13:57;7.23;;;6.63;;
7719;SDS011;3902;49.474;8.616;2023-04-25T06:16:22;7.70;;;7.00;;
7719;SDS011;3902;49.474;8.616;2023-04-25T06:18:50;7.83;;;7.13;;
7719;SDS011;3902;49.474;8.616;2023-04-25T06:21:16;8.20;;;7.30;;
7719;SDS011;3902;49.474;8.616;2023-04-25T06:23:41;8.17;;;7.37;;
7719;SDS011;3902;49.474;8.616;2023-04-25T06:26:07;7.50;;;6.80;;
7719;SDS011;3902;49.474;8.616;2023-04-25T06:28:32;7.27;;;6.63;;
7719;SDS011;3902;49.474;8.616;2023-04-25T06:30:58;7.70;;;6.90;;
7719;SDS011;3902;49.474;8.616;2023-04-25T06:33:23;7.90;;;7.20;;
7719;SDS011;3902;49.474;8.616;2023-04-25T06:35:49;7.70;;;7.00;;
7719;SDS011;3902;49.474;8.616;2023-04-25T06:38:15;12.10;;;8.00;;
7719;SDS011;3902;49.474;8.616;2023-04-25T06:40:40;8.07;;;7.30;;
7719;SDS011;3902;49.474;8.616;2023-04-25T06:43:06;8.10;;;7.30;;
7719;SDS011;3902;49.474;8.616;2023-04-25T06:45:31;7.20;;;6.50;;
7719;SDS011;3902;49.474;8.616;2023-04-25T06:47:57;7.10;;;6.50;;
7719;SDS011;3902;49.474;8.616;2023-04-25T06:50:22;6.60;;;6.00;;
7719;SDS011;3902;49.474;8.616;2023-04-25T06:52:48;7.80;;;7.07;;
7719;SDS011;3902;49.474;8.616;2023-04-25T06:55:13;8.70;;;7.37;;
7719;SDS011;3902;49.474;8.616;2023-04-25T06:57:39;6.93;;;6.23;;
7719;SDS011;3902;49.474;8.616;2023-04-25T07:00:04;6.93;;;6.30;;
7719;SDS011;3902;49.474;8.616;2023-04-25T07:02:33;6.40;;;5.80;;
7719;SDS011;3902;49.474;8.616;2023-04-25T07:04:59;6.20;;;5.57;;
7719;SDS011;3902;49.474;8.616;2023-04-25T07:07:25;8.80;;;5.97;;
7719;SDS011;3902;49.474;8.616;2023-04-25T07:09:51;6.43;;;5.70;;
7719;SDS011;3902;49.474;8.616;2023-04-25T07:12:17;6.23;;;5.47;;
7719;SDS011;3902;49.474;8.616;2023-04-25T07:14:42;8.13;;;6.03;;
7719;SDS011;3902;49.474;8.616;2023-04-25T07:17:08;8.83;;;6.40;;
7719;SDS011;3902;49.474;8.616;2023-04-25T07:19:33;8.23;;;5.90;;
7719;SDS011;3902;49.474;8.616;2023-04-25T07:21:59;8.43;;;6.33;;
7719;SDS011;3902;49.474;8.616;2023-04-25T07:24:25;8.07;;;6.10;;
7719;SDS011;3902;49.474;8.616;2023-04-25T07:26:51;8.90;;;5.47;;
7719;SDS011;3902;49.474;8.616;2023-04-25T07:29:16;8.60;;;6.17;;
7719;SDS011;3902;49.474;8.616;2023-04-25T07:31:42;7.70;;;5.10;;
7719;SDS011;3902;49.474;8.616;2023-04-25T07:34:07;9.03;;;6.60;;
7719;SDS011;3902;49.474;8.616;2023-04-25T07:36:33;9.33;;;6.50;;
7719;SDS011;3902;49.474;8.616;2023-04-25T07:38:58;9.87;;;6.20;;
7719;SDS011;3902;49.474;8.616;2023-04-25T07:41:24;8.10;;;6.30;;
7719;SDS011;3902;49.474;8.616;2023-04-25T07:43:49;7.50;;;5.50;;
7719;SDS011;3902;49.474;8.616;2023-04-25T07:46:15;7.00;;;6.07;;
7719;SDS011;3902;49.474;8.616;2023-04-25T07:48:40;9.10;;;6.10;;
7719;SDS011;3902;49.474;8.616;2023-04-25T07:51:06;7.83;;;5.90;;
7719;SDS011;3902;49.474;8.616;2023-04-25T07:53:32;5.70;;;4.70;;
7719;SDS011;3902;49.474;8.616;2023-04-25T07:55:59;7.70;;;5.00;;
7719;SDS011;3902;49.474;8.616;2023-04-25T07:58:25;8.77;;;5.50;;
7719;SDS011;3902;49.474;8.616;2023-04-25T08:00:50;8.60;;;5.90;;
7719;SDS011;3902;49.474;8.616;2023-04-25T08:03:16;5.37;;;4.53;;
7719;SDS011;3902;49.474;8.616;2023-04-25T08:05:41;6.20;;;5.40;;
7719;SDS011;3902;49.474;8.616;2023-04-25T08:08:07;6.10;;;5.10;;
7719;SDS011;3902;49.474;8.616;2023-04-25T08:10:33;9.20;;;5.80;;
7719;SDS011;3902;49.474;8.616;2023-04-25T08:12:59;7.70;;;5.00;;
7719;SDS011;3902;49.474;8.616;2023-04-25T08:15:24;7.67;;;5.57;;
7719;SDS011;3902;49.474;8.616;2023-04-25T08:17:51;11.70;;;6.07;;
7719;SDS011;3902;49.474;8.616;2023-04-25T08:20:16;8.40;;;4.90;;
7719;SDS011;3902;49.474;8.616;2023-04-25T08:22:42;6.50;;;5.07;;
7719;SDS011;3902;49.474;8.616;2023-04-25T08:25:08;8.20;;;6.10;;
7719;SDS011;3902;49.474;8.616;2023-04-25T08:27:33;6.67;;;4.53;;
7719;SDS011;3902;49.474;8.616;2023-04-25T08:29:59;7.20;;;4.90;;
7719;SDS011;3902;49.474;8.616;2023-04-25T08:32:25;7.60;;;4.77;;
7719;SDS011;3902;49.474;8.616;2023-04-25T08:34:50;8.10;;;4.53;;
7719;SDS011;3902;49.474;8.616;2023-04-25T08:37:19;4.83;;;4.00;;
7719;SDS011;3902;49.474;8.616;2023-04-25T08:39:44;7.07;;;4.03;;
7719;SDS011;3902;49.474;8.616;2023-04-25T08:42:10;7.70;;;5.43;;
7719;SDS011;3902;49.474;8.616;2023-04-25T08:44:37;6.63;;;5.17;;
7719;SDS011;3902;49.474;8.616;2023-04-25T08:47:03;6.77;;;4.83;;
7719;SDS011;3902;49.474;8.616;2023-04-25T08:49:33;6.33;;;4.30;;
7719;SDS011;3902;49.474;8.616;2023-04-25T08:51:59;4.93;;;4.40;;
7719;SDS011;3902;49.474;8.616;2023-04-25T08:54:27;9.53;;;4.97;;
7719;SDS011;3902;49.474;8.616;2023-04-25T08:56:54;8.27;;;4.83;;
7719;SDS011;3902;49.474;8.616;2023-04-25T08:59:22;5.90;;;4.30;;
7719;SDS011;3902;49.474;8.616;2023-04-25T09:01:48;5.70;;;4.40;;
7719;SDS011;3902;49.474;8.616;2023-04-25T09:04:14;7.77;;;5.00;;
7719;SDS011;3902;49.474;8.616;2023-04-25T09:06:40;5.77;;;4.50;;
7719;SDS011;3902;49.474;8.616;2023-04-25T09:09:07;5.97;;;4.57;;
7719;SDS011;3902;49.474;8.616;2023-04-25T09:11:35;5.77;;;3.90;;
7719;SDS011;3902;49.474;8.616;2023-04-25T09:14:14;5.87;;;4.50;;
7719;SDS011;3902;49.474;8.616;2023-04-25T09:19:24;5.63;;;4.23;;
7719;SDS011;3902;49.474;8.616;2023-04-25T09:21:54;5.80;;;4.17;;
7719;SDS011;3902;49.474;8.616;2023-04-25T09:24:40;6.27;;;4.80;;
7719;SDS011;3902;49.474;8.616;2023-04-25T09:27:11;7.17;;;4.27;;
7719;SDS011;3902;49.474;8.616;2023-04-25T09:29:42;6.23;;;4.00;;
7719;SDS011;3902;49.474;8.616;2023-04-25T09:32:21;6.17;;;4.00;;
7719;SDS011;3902;49.474;8.616;2023-04-25T09:34:48;4.70;;;4.03;;
7719;SDS011;3902;49.474;8.616;2023-04-25T09:37:18;5.50;;;4.67;;
7719;SDS011;3902;49.474;8.616;2023-04-25T09:39:46;6.20;;;4.70;;
7719;SDS011;3902;49.474;8.616;2023-04-25T09:42:13;6.00;;;4.10;;
7719;SDS011;3902;49.474;8.616;2023-04-25T09:44:41;6.87;;;4.40;;
7719;SDS011;3902;49.474;8.616;2023-04-25T09:47:12;5.13;;;4.20;;
7719;SDS011;3902;49.474;8.616;2023-04-25T09:49:39;7.40;;;4.30;;
7719;SDS011;3902;49.474;8.616;2023-04-25T09:52:08;6.33;;;4.27;;
7719;SDS011;3902;49.474;8.616;2023-04-25T09:54:37;6.20;;;4.47;;
7719;SDS011;3902;49.474;8.616;2023-04-25T09:57:08;4.30;;;3.90;;
7719;SDS011;3902;49.474;8.616;2023-04-25T09:59:38;7.00;;;4.30;;
7719;SDS011;3902;49.474;8.616;2023-04-25T10:02:07;5.77;;;4.10;;
7719;SDS011;3902;49.474;8.616;2023-04-25T10:04:34;8.33;;;4.40;;
7719;SDS011;3902;49.474;8.616;2023-04-25T10:07:01;6.27;;;5.37;;
7719;SDS011;3902;49.474;8.616;2023-04-25T10:09:30;5.63;;;4.43;;
7719;SDS011;3902;49.474;8.616;2023-04-25T10:11:58;7.27;;;4.20;;
7719;SDS011;3902;49.474;8.616;2023-04-25T10:14:25;5.37;;;4.87;;
7719;SDS011;3902;49.474;8.616;2023-04-25T10:16:51;7.40;;;4.60;;
7719;SDS011;3902;49.474;8.616;2023-04-25T10:19:21;8.50;;;4.93;;
7719;SDS011;3902;49.474;8.616;2023-04-25T10:21:51;8.00;;;5.10;;
7719;SDS011;3902;49.474;8.616;2023-04-25T10:24:29;6.60;;;4.20;;
7719;SDS011;3902;49.474;8.616;2023-04-25T10:26:56;5.53;;;4.63;;
7719;SDS011;3902;49.474;8.616;2023-04-25T10:29:23;5.17;;;4.17;;
7719;SDS011;3902;49.474;8.616;2023-04-25T10:31:50;5.60;;;4.07;;
7719;SDS011;3902;49.474;8.616;2023-04-25T10:34:16;6.10;;;3.73;;
7719;SDS011;3902;49.474;8.616;2023-04-25T10:36:43;5.00;;;4.50;;
7719;SDS011;3902;49.474;8.616;2023-04-25T10:39:20;6.17;;;4.53;;
7719;SDS011;3902;49.474;8.616;2023-04-25T10:41:57;7.40;;;5.17;;
7719;SDS011;3902;49.474;8.616;2023-04-25T10:44:26;5.37;;;4.07;;
7719;SDS011;3902;49.474;8.616;2023-04-25T10:46:54;7.30;;;4.33;;
7719;SDS011;3902;49.474;8.616;2023-04-25T10:52:16;8.20;;;4.53;;
7719;SDS011;3902;49.474;8.616;2023-04-25T10:54:47;6.10;;;4.60;;
7719;SDS011;3902;49.474;8.616;2023-04-25T11:00:07;4.47;;;3.70;;
7719;SDS011;3902;49.474;8.616;2023-04-25T11:02:49;10.07;;;4.83;;
7719;SDS011;3902;49.474;8.616;2023-04-25T11:05:29;7.73;;;4.10;;
7719;SDS011;3902;49.474;8.616;2023-04-25T11:07:59;5.27;;;4.23;;
7719;SDS011;3902;49.474;8.616;2023-04-25T11:10:25;6.50;;;4.57;;
7719;SDS011;3902;49.474;8.616;2023-04-25T11:12:52;5.03;;;4.33;;
7719;SDS011;3902;49.474;8.616;2023-04-25T11:15:17;6.87;;;4.50;;
7719;SDS011;3902;49.474;8.616;2023-04-25T11:17:43;6.07;;;4.37;;
7719;SDS011;3902;49.474;8.616;2023-04-25T11:20:11;5.63;;;4.10;;
7719;SDS011;3902;49.474;8.616;2023-04-25T11:22:39;4.50;;;3.90;;
7719;SDS011;3902;49.474;8.616;2023-04-25T11:25:09;5.70;;;3.93;;
7719;SDS011;3902;49.474;8.616;2023-04-25T11:27:54;7.00;;;3.73;;
7719;SDS011;3902;49.474;8.616;2023-04-25T11:30:26;5.20;;;3.80;;
7719;SDS011;3902;49.474;8.616;2023-04-25T11:32:53;3.97;;;3.57;;
7719;SDS011;3902;49.474;8.616;2023-04-25T11:35:19;4.20;;;3.40;;
7719;SDS011;3902;49.474;8.616;2023-04-25T11:37:47;4.23;;;3.07;;
7719;SDS011;3902;49.474;8.616;2023-04-25T11:40:13;4.10;;;3.10;;
7719;SDS011;3902;49.474;8.616;2023-04-25T11:42:39;6.97;;;3.20;;
7719;SDS011;3902;49.474;8.616;2023-04-25T11:45:09;6.00;;;3.37;;
7719;SDS011;3902;49.474;8.616;2023-04-25T11:47:35;4.40;;;2.73;;
7719;SDS011;3902;49.474;8.616;2023-04-25T11:50:02;3.50;;;3.20;;
7719;SDS011;3902;49.474;8.616;2023-04-25T11:52:36;4.43;;;3.23;;
7719;SDS011;3902;49.474;8.616;2023-04-25T11:55:09;4.70;;;2.80;;
7719;SDS011;3902;49.474;8.616;2023-04-25T11:57:38;4.83;;;2.90;;
7719;SDS011;3902;49.474;8.616;2023-04-25T12:00:07;4.10;;;3.00;;
7719;SDS011;3902;49.474;8.616;2023-04-25T12:02:46;3.27;;;2.87;;
7719;SDS011;3902;49.474;8.616;2023-04-25T12:05:13;5.43;;;3.40;;
7719;SDS011;3902;49.474;8.616;2023-04-25T12:07:40;3.63;;;2.90;;
7719;SDS011;3902;49.474;8.616;2023-04-25T12:10:10;3.50;;;3.10;;
7719;SDS011;3902;49.474;8.616;2023-04-25T12:12:38;3.33;;;2.67;;
7719;SDS011;3902;49.474;8.616;2023-04-25T12:17:47;2.97;;;2.67;;
7719;SDS011;3902;49.474;8.616;2023-04-25T12:20:21;3.50;;;2.93;;
7719;SDS011;3902;49.474;8.616;2023-04-25T12:22:49;3.23;;;2.70;;
7719;SDS011;3902;49.474;8.616;2023-04-25T12:28:19;3.57;;;2.80;;
7719;SDS011;3902;49.474;8.616;2023-04-25T12:33:21;5.37;;;3.30;;
7719;SDS011;3902;49.474;8.616;2023-04-25T12:35:47;5.43;;;3.37;;
7719;SDS011;3902;49.474;8.616;2023-04-25T12:38:22;5.07;;;3.50;;
7719;SDS011;3902;49.474;8.616;2023-04-25T12:40:53;5.60;;;3.70;;
7719;SDS011;3902;49.474;8.616;2023-04-25T12:43:19;3.90;;;3.50;;
7719;SDS011;3902;49.474;8.616;2023-04-25T12:45:48;5.83;;;3.50;;
7719;SDS011;3902;49.474;8.616;2023-04-25T12:48:16;3.50;;;3.20;;
7719;SDS011;3902;49.474;8.616;2023-04-25T12:50:41;14.67;;;4.23;;
7719;SDS011;3902;49.474;8.616;2023-04-25T12:53:07;4.27;;;3.27;;
7719;SDS011;3902;49.474;8.616;2023-04-25T12:55:33;4.07;;;3.17;;
7719;SDS011;3902;49.474;8.616;2023-04-25T12:57:59;5.53;;;3.43;;
7719;SDS011;3902;49.474;8.616;2023-04-25T13:00:24;4.20;;;3.30;;
7719;SDS011;3902;49.474;8.616;2023-04-25T13:02:51;4.30;;;3.90;;
7719;SDS011;3902;49.474;8.616;2023-04-25T13:05:16;4.30;;;3.73;;
7719;SDS011;3902;49.474;8.616;2023-04-25T13:07:42;5.47;;;3.70;;
7719;SDS011;3902;49.474;8.616;2023-04-25T13:10:07;5.07;;;3.40;;
7719;SDS011;3902;49.474;8.616;2023-04-25T13:12:33;3.77;;;3.23;;
7719;SDS011;3902;49.474;8.616;2023-04-25T13:14:58;4.40;;;4.00;;
7719;SDS011;3902;49.474;8.616;2023-04-25T13:17:24;5.00;;;3.93;;
7719;SDS011;3902;49.474;8.616;2023-04-25T13:19:50;4.83;;;3.50;;
7719;SDS011;3902;49.474;8.616;2023-04-25T13:22:16;4.30;;;3.37;;
7719;SDS011;3902;49.474;8.616;2023-04-25T13:24:45;6.30;;;4.30;;
7719;SDS011;3902;49.474;8.616;2023-04-25T13:27:11;5.27;;;3.77;;
7719;SDS011;3902;49.474;8.616;2023-04-25T13:29:36;4.67;;;4.17;;
7719;SDS011;3902;49.474;8.616;2023-04-25T13:32:03;6.00;;;4.03;;
7719;SDS011;3902;49.474;8.616;2023-04-25T13:34:30;3.87;;;3.27;;
7719;SDS011;3902;49.474;8.616;2023-04-25T13:36:55;4.60;;;3.70;;
7719;SDS011;3902;49.474;8.616;2023-04-25T13:39:21;5.27;;;3.53;;
7719;SDS011;3902;49.474;8.616;2023-04-25T13:41:47;5.83;;;4.17;;
7719;SDS011;3902;49.474;8.616;2023-04-25T13:44:12;4.73;;;3.70;;
7719;SDS011;3902;49.474;8.616;2023-04-25T13:46:38;5.20;;;4.00;;
7719;SDS011;3902;49.474;8.616;2023-04-25T13:49:04;9.30;;;3.70;;
7719;SDS011;3902;49.474;8.616;2023-04-25T13:51:29;6.50;;;3.80;;
7719;SDS011;3902;49.474;8.616;2023-04-25T13:53:55;5.33;;;3.83;;
7719;SDS011;3902;49.474;8.616;2023-04-25T13:56:21;5.83;;;4.13;;
7719;SDS011;3902;49.474;8.616;2023-04-25T13:58:48;6.17;;;4.20;;
7719;SDS011;3902;49.474;8.616;2023-04-25T14:01:13;4.27;;;3.70;;
7719;SDS011;3902;49.474;8.616;2023-04-25T14:03:39;6.13;;;3.63;;
7719;SDS011;3902;49.474;8.616;2023-04-25T14:06:06;5.80;;;4.67;;
7719;SDS011;3902;49.474;8.616;2023-04-25T14:08:33;6.87;;;3.80;;
7719;SDS011;3902;49.474;8.616;2023-04-25T14:10:59;5.77;;;4.00;;
7719;SDS011;3902;49.474;8.616;2023-04-25T14:13:24;6.57;;;4.03;;
7719;SDS011;3902;49.474;8.616;2023-04-25T14:15:50;5.80;;;3.90;;
7719;SDS011;3902;49.474;8.616;2023-04-25T14:18:16;5.30;;;3.53;;
7719;SDS011;3902;49.474;8.616;2023-04-25T14:20:42;5.40;;;3.70;;
7719;SDS011;3902;49.474;8.616;2023-04-25T14:23:07;4.93;;;3.77;;
7719;SDS011;3902;49.474;8.616;2023-04-25T14:25:33;7.63;;;4.17;;
7719;SDS011;3902;49.474;8.616;2023-04-25T14:28:00;9.10;;;3.93;;
7719;SDS011;3902;49.474;8.616;2023-04-25T14:30:25;5.37;;;3.20;;
7719;SDS011;3902;49.474;8.616;2023-04-25T14:32:51;5.10;;;3.40;;
7719;SDS011;3902;49.474;8.616;2023-04-25T14:35:17;5.60;;;3.90;;
7719;SDS011;3902;49.474;8.616;2023-04-25T14:37:42;9.73;;;3.93;;
7719;SDS011;3902;49.474;8.616;2023-04-25T14:40:08;3.87;;;3.53;;
7719;SDS011;3902;49.474;8.616;2023-04-25T14:42:35;4.80;;;3.50;;
7719;SDS011;3902;49.474;8.616;2023-04-25T14:45:02;4.93;;;3.10;;
7719;SDS011;3902;49.474;8.616;2023-04-25T14:47:34;5.20;;;4.00;;
7719;SDS011;3902;49.474;8.616;2023-04-25T14:50:04;4.50;;;3.37;;
7719;SDS011;3902;49.474;8.616;2023-04-25T14:52:30;6.27;;;4.27;;
7719;SDS011;3902;49.474;8.616;2023-04-25T14:54:56;6.30;;;4.00;;
7719;SDS011;3902;49.474;8.616;2023-04-25T14:57:21;5.10;;;3.80;;
7719;SDS011;3902;49.474;8.616;2023-04-25T14:59:47;4.10;;;3.50;;
7719;SDS011;3902;49.474;8.616;2023-04-25T15:02:12;4.57;;;2.93;;
7719;SDS011;3902;49.474;8.616;2023-04-25T15:04:38;4.73;;;3.73;;
7719;SDS011;3902;49.474;8.616;2023-04-25T15:07:03;4.07;;;3.27;;
7719;SDS011;3902;49.474;8.616;2023-04-25T15:09:29;4.90;;;3.97;;
7719;SDS011;3902;49.474;8.616;2023-04-25T15:11:55;4.50;;;3.50;;
7719;SDS011;3902;49.474;8.616;2023-04-25T15:14:21;8.80;;;3.37;;
7719;SDS011;3902;49.474;8.616;2023-04-25T15:16:47;4.00;;;3.60;;
7719;SDS011;3902;49.474;8.616;2023-04-25T15:19:12;6.13;;;3.50;;
7719;SDS011;3902;49.474;8.616;2023-04-25T15:21:38;13.70;;;3.67;;
7719;SDS011;3902;49.474;8.616;2023-04-25T15:24:04;5.60;;;3.37;;
7719;SDS011;3902;49.474;8.616;2023-04-25T15:26:30;6.30;;;3.37;;
7719;SDS011;3902;49.474;8.616;2023-04-25T15:28:55;4.37;;;3.23;;